sensor_id;sensor_type;location;lat;lon;timestamp;pressure;altitude;pressure_sealevel;temperature;humidity
30110;BME280;14965;50.660;13.226;2023-05-24T00:01:55;95125.34;;;7.86;100.00
30110;BME280;14965;50.660;13.226;2023-05-24T00:04:21;95128.84;;;7.90;100.00
30110;BME280;14965;50.660;13.226;2023-05-24T00:06:46;95134.28;;;7.93;100.00
30110;BME280;14965;50.660;13.226;2023-05-24T00:09:12;95130.41;;;7.91;100.00
30110;BME280;14965;50.660;13.226;2023-05-24T00:11:38;95127.72;;;7.87;100.00
30110;BME280;14965;50.660;13.226;2023-05-24T00:14:04;95136.31;;;7.89;100.00
30110;BME280;14965;50.660;13.226;2023-05-24T00:16:32;95130.75;;;7.93;100.00
30110;BME280;14965;50.660;13.226;2023-05-24T00:18:57;95124.88;;;7.94;100.00
30110;BME280;14965;50.660;13.226;2023-05-24T00:21:23;95132.69;;;7.96;100.00
30110;BME280;14965;50.660;13.226;2023-05-24T00:23:49;95132.09;;;7.81;100.00
30110;BME280;14965;50.660;13.226;2023-05-24T00:26:15;95132.16;;;7.78;100.00
30110;BME280;14965;50.660;13.226;2023-05-24T00:28:41;95133.34;;;7.77;100.00
30110;BME280;14965;50.660;13.226;2023-05-24T00:31:07;95138.06;;;7.76;100.00
30110;BME280;14965;50.660;13.226;2023-05-24T00:33:34;95135.31;;;7.76;100.00
30110;BME280;14965;50.660;13.226;2023-05-24T00:36:00;95135.75;;;7.74;100.00
30110;BME280;14965;50.660;13.226;2023-05-24T00:38:26;95141.41;;;7.60;100.00
30110;BME280;14965;50.660;13.226;2023-05-24T00:40:52;95141.06;;;7.58;100.00
30110;BME280;14965;50.660;13.226;2023-05-24T00:43:18;95139.09;;;7.59;100.00
30110;BME280;14965;50.660;13.226;2023-05-24T00:45:44;95139.50;;;7.57;100.00
30110;BME280;14965;50.660;13.226;2023-05-24T00:48:11;95133.97;;;7.61;100.00
30110;BME280;14965;50.660;13.226;2023-05-24T00:50:39;95143.38;;;7.60;100.00
30110;BME280;14965;50.660;13.226;2023-05-24T00:53:06;95136.81;;;7.54;100.00
30110;BME280;14965;50.660;13.226;2023-05-24T00:55:33;95144.66;;;7.52;100.00
30110;BME280;14965;50.660;13.226;2023-05-24T00:58:00;95141.97;;;7.48;100.00
30110;BME280;14965;50.660;13.226;2023-05-24T01:00:28;95142.81;;;7.45;100.00
30110;BME280;14965;50.660;13.226;2023-05-24T01:02:55;95141.22;;;7.44;100.00
30110;BME280;14965;50.660;13.226;2023-05-24T01:05:21;95131.81;;;7.45;100.00
30110;BME280;14965;50.660;13.226;2023-05-24T01:07:58;95147.19;;;7.39;100.00
30110;BME280;14965;50.660;13.226;2023-05-24T01:10:39;95136.66;;;7.34;100.00
30110;BME280;14965;50.660;13.226;2023-05-24T01:13:24;95144.88;;;7.34;100.00
30110;BME280;14965;50.660;13.226;2023-05-24T01:15:58;95139.84;;;7.29;100.00
30110;BME280;14965;50.660;13.226;2023-05-24T01:18:33;95142.19;;;7.30;100.00
30110;BME280;14965;50.660;13.226;2023-05-24T01:21:15;95138.31;;;7.28;100.00
30110;BME280;14965;50.660;13.226;2023-05-24T01:23:56;95134.06;;;7.19;100.00
30110;BME280;14965;50.660;13.226;2023-05-24T01:26:39;95138.09;;;7.11;100.00
30110;BME280;14965;50.660;13.226;2023-05-24T01:29:09;95139.25;;;7.10;100.00
30110;BME280;14965;50.660;13.226;2023-05-24T01:31:36;95134.59;;;7.07;100.00
30110;BME280;14965;50.660;13.226;2023-05-24T01:34:02;95128.38;;;7.03;100.00
30110;BME280;14965;50.660;13.226;2023-05-24T01:36:28;95136.66;;;6.99;100.00
30110;BME280;14965;50.660;13.226;2023-05-24T01:38:54;95132.38;;;6.95;100.00
30110;BME280;14965;50.660;13.226;2023-05-24T01:41:38;95141.88;;;6.87;100.00
30110;BME280;14965;50.660;13.226;2023-05-24T01:44:21;95134.47;;;6.80;100.00
30110;BME280;14965;50.660;13.226;2023-05-24T01:47:00;95141.59;;;6.78;100.00
30110;BME280;14965;50.660;13.226;2023-05-24T01:49:33;95146.66;;;6.79;100.00
30110;BME280;14965;50.660;13.226;2023-05-24T01:52:05;95149.06;;;6.73;100.00
30110;BME280;14965;50.660;13.226;2023-05-24T01:54:38;95143.94;;;6.76;100.00
30110;BME280;14965;50.660;13.226;2023-05-24T01:57:08;95142.44;;;6.67;100.00
30110;BME280;14965;50.660;13.226;2023-05-24T01:59:39;95144.84;;;6.65;100.00
30110;BME280;14965;50.660;13.226;2023-05-24T02:02:06;95152.66;;;6.67;100.00
30110;BME280;14965;50.660;13.226;2023-05-24T02:04:32;95139.66;;;6.71;100.00
30110;BME280;14965;50.660;13.226;2023-05-24T02:06:58;95154.50;;;6.77;100.00
30110;BME280;14965;50.660;13.226;2023-05-24T02:09:24;95151.03;;;6.73;100.00
30110;BME280;14965;50.660;13.226;2023-05-24T02:11:50;95148.13;;;6.46;100.00
30110;BME280;14965;50.660;13.226;2023-05-24T02:14:16;95146.94;;;6.47;100.00
30110;BME280;14965;50.660;13.226;2023-05-24T02:16:43;95138.69;;;6.51;100.00
30110;BME280;14965;50.660;13.226;2023-05-24T02:19:09;95139.94;;;6.39;100.00
30110;BME280;14965;50.660;13.226;2023-05-24T02:21:35;95125.56;;;6.28;100.00
30110;BME280;14965;50.660;13.226;2023-05-24T02:24:00;95126.38;;;6.24;100.00
30110;BME280;14965;50.660;13.226;2023-05-24T02:26:26;95129.91;;;6.21;100.00
30110;BME280;14965;50.660;13.226;2023-05-24T02:28:52;95129.56;;;6.16;100.00
30110;BME280;14965;50.660;13.226;2023-05-24T02:31:18;95126.81;;;6.19;100.00
30110;BME280;14965;50.660;13.226;2023-05-24T02:33:45;95132.25;;;6.23;100.00
30110;BME280;14965;50.660;13.226;2023-05-24T02:36:11;95127.91;;;6.26;100.00
30110;BME280;14965;50.660;13.226;2023-05-24T02:38:37;95120.06;;;6.31;100.00
30110;BME280;14965;50.660;13.226;2023-05-24T02:41:03;95123.94;;;6.34;100.00
30110;BME280;14965;50.660;13.226;2023-05-24T02:43:29;95121.59;;;6.32;100.00
30110;BME280;14965;50.660;13.226;2023-05-24T02:45:55;95118.09;;;6.28;100.00
30110;BME280;14965;50.660;13.226;2023-05-24T02:48:20;95116.91;;;6.29;100.00
30110;BME280;14965;50.660;13.226;2023-05-24T02:50:48;95116.50;;;6.31;100.00
30110;BME280;14965;50.660;13.226;2023-05-24T02:53:14;95117.31;;;6.31;100.00
30110;BME280;14965;50.660;13.226;2023-05-24T02:55:39;95114.19;;;6.29;100.00
30110;BME280;14965;50.660;13.226;2023-05-24T02:58:05;95113.38;;;6.32;100.00
30110;BME280;14965;50.660;13.226;2023-05-24T03:00:31;95108.69;;;6.29;100.00
30110;BME280;14965;50.660;13.226;2023-05-24T03:02:57;95115.34;;;6.32;100.00
30110;BME280;14965;50.660;13.226;2023-05-24T03:05:23;95119.19;;;6.38;100.00
30110;BME280;14965;50.660;13.226;2023-05-24T03:07:50;95112.94;;;6.37;100.00
30110;BME280;14965;50.660;13.226;2023-05-24T03:10:16;95101.94;;;6.41;100.00
30110;BME280;14965;50.660;13.226;2023-05-24T03:12:42;95101.53;;;6.39;100.00
30110;BME280;14965;50.660;13.226;2023-05-24T03:15:09;95110.97;;;6.38;100.00
30110;BME280;14965;50.660;13.226;2023-05-24T03:17:35;95111.34;;;6.40;100.00
30110;BME280;14965;50.660;13.226;2023-05-24T03:20:01;95112.19;;;6.33;100.00
30110;BME280;14965;50.660;13.226;2023-05-24T03:22:27;95110.22;;;6.34;100.00
30110;BME280;14965;50.660;13.226;2023-05-24T03:24:54;95113.72;;;6.38;100.00
30110;BME280;14965;50.660;13.226;2023-05-24T03:27:19;95110.94;;;6.41;100.00
30110;BME280;14965;50.660;13.226;2023-05-24T03:29:45;95128.22;;;6.35;100.00
30110;BME280;14965;50.660;13.226;2023-05-24T03:32:11;95117.22;;;6.38;100.00
30110;BME280;14965;50.660;13.226;2023-05-24T03:34:37;95118.09;;;6.32;100.00
30110;BME280;14965;50.660;13.226;2023-05-24T03:37:03;95120.16;;;6.17;100.00
30110;BME280;14965;50.660;13.226;2023-05-24T03:39:29;95118.59;;;6.16;100.00
30110;BME280;14965;50.660;13.226;2023-05-24T03:41:56;95125.66;;;6.13;100.00
30110;BME280;14965;50.660;13.226;2023-05-24T03:44:23;95135.47;;;6.11;100.00
30110;BME280;14965;50.660;13.226;2023-05-24T03:46:49;95123.00;;;6.06;100.00
30110;BME280;14965;50.660;13.226;2023-05-24T03:49:14;95130.06;;;6.00;100.00
30110;BME280;14965;50.660;13.226;2023-05-24T03:51:40;95138.28;;;6.04;100.00
30110;BME280;14965;50.660;13.226;2023-05-24T03:54:06;95132.38;;;6.05;100.00
30110;BME280;14965;50.660;13.226;2023-05-24T03:56:33;95125.34;;;6.01;100.00
30110;BME280;14965;50.660;13.226;2023-05-24T03:59:00;95130.47;;;5.98;100.00
30110;BME280;14965;50.660;13.226;2023-05-24T04:01:26;95125.78;;;5.95;100.00
30110;BME280;14965;50.660;13.226;2023-05-24T04:03:52;95129.69;;;5.98;100.00
30110;BME280;14965;50.660;13.226;2023-05-24T04:06:18;95128.88;;;6.01;100.00
30110;BME280;14965;50.660;13.226;2023-05-24T04:08:44;95135.13;;;6.05;100.00
30110;BME280;14965;50.660;13.226;2023-05-24T04:11:10;95136.63;;;6.13;100.00
30110;BME280;14965;50.660;13.226;2023-05-24T04:13:35;95133.13;;;6.09;100.00
30110;BME280;14965;50.660;13.226;2023-05-24T04:16:03;95143.41;;;5.98;100.00
30110;BME280;14965;50.660;13.226;2023-05-24T04:18:29;95144.94;;;6.06;100.00
30110;BME280;14965;50.660;13.226;2023-05-24T04:20:55;95141.78;;;6.04;100.00
30110;BME280;14965;50.660;13.226;2023-05-24T04:23:20;95145.66;;;6.10;100.00
30110;BME280;14965;50.660;13.226;2023-05-24T04:25:46;95147.97;;;6.15;100.00
30110;BME280;14965;50.660;13.226;2023-05-24T04:28:12;95149.91;;;6.18;100.00
30110;BME280;14965;50.660;13.226;2023-05-24T04:30:38;95155.00;;;6.20;100.00
30110;BME280;14965;50.660;13.226;2023-05-24T04:33:05;95157.34;;;6.18;100.00
30110;BME280;14965;50.660;13.226;2023-05-24T04:35:31;95154.25;;;6.12;100.00
30110;BME280;14965;50.660;13.226;2023-05-24T04:37:57;95158.56;;;6.13;100.00
30110;BME280;14965;50.660;13.226;2023-05-24T04:40:23;95162.50;;;6.09;100.00
30110;BME280;14965;50.660;13.226;2023-05-24T04:42:49;95171.50;;;6.09;100.00
30110;BME280;14965;50.660;13.226;2023-05-24T04:45:15;95164.41;;;6.19;100.00
30110;BME280;14965;50.660;13.226;2023-05-24T04:47:41;95162.38;;;6.27;100.00
30110;BME280;14965;50.660;13.226;2023-05-24T04:50:09;95169.03;;;6.29;100.00
30110;BME280;14965;50.660;13.226;2023-05-24T04:52:35;95174.09;;;6.31;100.00
30110;BME280;14965;50.660;13.226;2023-05-24T04:55:01;95181.25;;;6.17;99.02
30110;BME280;14965;50.660;13.226;2023-05-24T04:57:27;95175.00;;;6.13;100.00
30110;BME280;14965;50.660;13.226;2023-05-24T04:59:53;95172.97;;;6.24;100.00
30110;BME280;14965;50.660;13.226;2023-05-24T05:02:19;95183.84;;;6.39;100.00
30110;BME280;14965;50.660;13.226;2023-05-24T05:04:44;95181.06;;;6.46;100.00
30110;BME280;14965;50.660;13.226;2023-05-24T05:07:12;95187.41;;;6.36;98.42
30110;BME280;14965;50.660;13.226;2023-05-24T05:09:37;95190.28;;;6.14;97.83
30110;BME280;14965;50.660;13.226;2023-05-24T05:12:04;95192.22;;;6.17;99.46
30110;BME280;14965;50.660;13.226;2023-05-24T05:14:30;95193.38;;;6.23;99.96
30110;BME280;14965;50.660;13.226;2023-05-24T05:16:56;95197.22;;;6.30;100.00
30110;BME280;14965;50.660;13.226;2023-05-24T05:19:22;95198.00;;;6.34;100.00
30110;BME280;14965;50.660;13.226;2023-05-24T05:21:48;95217.94;;;6.38;99.81
30110;BME280;14965;50.660;13.226;2023-05-24T05:24:17;95206.63;;;6.32;99.47
30110;BME280;14965;50.660;13.226;2023-05-24T05:26:43;95205.44;;;6.33;99.60
30110;BME280;14965;50.660;13.226;2023-05-24T05:29:09;95217.19;;;6.34;100.00
30110;BME280;14965;50.660;13.226;2023-05-24T05:31:35;95207.03;;;6.31;98.97
30110;BME280;14965;50.660;13.226;2023-05-24T05:34:00;95210.56;;;6.31;99.32
30110;BME280;14965;50.660;13.226;2023-05-24T05:36:26;95212.13;;;6.29;98.61
30110;BME280;14965;50.660;13.226;2023-05-24T05:38:52;95210.63;;;6.20;98.58
30110;BME280;14965;50.660;13.226;2023-05-24T05:41:21;95213.88;;;5.97;97.62
30110;BME280;14965;50.660;13.226;2023-05-24T05:43:47;95210.34;;;6.01;98.33
30110;BME280;14965;50.660;13.226;2023-05-24T05:46:12;95211.50;;;6.07;99.19
30110;BME280;14965;50.660;13.226;2023-05-24T05:48:38;95224.38;;;6.10;99.27
30110;BME280;14965;50.660;13.226;2023-05-24T05:51:04;95211.47;;;6.10;98.54
30110;BME280;14965;50.660;13.226;2023-05-24T05:53:32;95216.13;;;6.20;98.68
30110;BME280;14965;50.660;13.226;2023-05-24T05:55:58;95225.47;;;6.27;97.85
30110;BME280;14965;50.660;13.226;2023-05-24T05:58:25;95217.22;;;6.27;97.37
30110;BME280;14965;50.660;13.226;2023-05-24T06:00:51;95221.56;;;6.24;98.30
30110;BME280;14965;50.660;13.226;2023-05-24T06:03:17;95216.16;;;6.13;98.71
30110;BME280;14965;50.660;13.226;2023-05-24T06:05:43;95216.16;;;6.13;99.31
30110;BME280;14965;50.660;13.226;2023-05-24T06:08:09;95222.38;;;6.17;99.37
30110;BME280;14965;50.660;13.226;2023-05-24T06:10:35;95221.28;;;6.08;96.51
30110;BME280;14965;50.660;13.226;2023-05-24T06:13:01;95225.53;;;6.19;97.52
30110;BME280;14965;50.660;13.226;2023-05-24T06:15:29;95219.94;;;6.34;97.06
30110;BME280;14965;50.660;13.226;2023-05-24T06:17:55;95226.94;;;6.42;97.02
30110;BME280;14965;50.660;13.226;2023-05-24T06:20:20;95228.44;;;6.50;97.14
30110;BME280;14965;50.660;13.226;2023-05-24T06:22:46;95218.28;;;6.43;94.46
30110;BME280;14965;50.660;13.226;2023-05-24T06:25:12;95225.00;;;6.39;94.73
30110;BME280;14965;50.660;13.226;2023-05-24T06:27:38;95236.72;;;6.43;94.91
30110;BME280;14965;50.660;13.226;2023-05-24T06:30:06;95237.47;;;6.47;94.12
30110;BME280;14965;50.660;13.226;2023-05-24T06:32:33;95236.97;;;6.63;94.68
30110;BME280;14965;50.660;13.226;2023-05-24T06:34:59;95227.06;;;6.76;94.25
30110;BME280;14965;50.660;13.226;2023-05-24T06:37:25;95229.72;;;6.87;92.64
30110;BME280;14965;50.660;13.226;2023-05-24T06:39:51;95234.03;;;6.88;92.50
30110;BME280;14965;50.660;13.226;2023-05-24T06:42:16;95233.59;;;6.89;91.71
30110;BME280;14965;50.660;13.226;2023-05-24T06:44:42;95227.34;;;6.89;90.45
30110;BME280;14965;50.660;13.226;2023-05-24T06:47:08;95239.84;;;6.93;90.34
30110;BME280;14965;50.660;13.226;2023-05-24T06:49:35;95234.34;;;6.97;89.52
30110;BME280;14965;50.660;13.226;2023-05-24T06:52:01;95224.78;;;7.12;89.69
30110;BME280;14965;50.660;13.226;2023-05-24T06:54:28;95224.63;;;7.27;89.77
30110;BME280;14965;50.660;13.226;2023-05-24T06:56:53;95232.38;;;7.35;89.17
30110;BME280;14965;50.660;13.226;2023-05-24T06:59:19;95239.38;;;7.43;87.97
30110;BME280;14965;50.660;13.226;2023-05-24T07:01:45;95244.94;;;7.40;87.80
30110;BME280;14965;50.660;13.226;2023-05-24T07:04:11;95244.50;;;7.41;88.61
30110;BME280;14965;50.660;13.226;2023-05-24T07:06:38;95239.59;;;7.60;86.58
30110;BME280;14965;50.660;13.226;2023-05-24T07:09:04;95238.06;;;7.89;86.88
30110;BME280;14965;50.660;13.226;2023-05-24T07:11:31;95247.19;;;8.13;84.77
30110;BME280;14965;50.660;13.226;2023-05-24T07:13:57;95252.59;;;8.20;85.31
30110;BME280;14965;50.660;13.226;2023-05-24T07:16:23;95248.28;;;8.19;83.62
30110;BME280;14965;50.660;13.226;2023-05-24T07:18:49;95249.50;;;8.15;83.03
30110;BME280;14965;50.660;13.226;2023-05-24T07:21:15;95246.03;;;8.11;83.84
30110;BME280;14965;50.660;13.226;2023-05-24T07:23:42;95251.41;;;7.91;83.06
30110;BME280;14965;50.660;13.226;2023-05-24T07:26:08;95257.00;;;7.84;83.79
30110;BME280;14965;50.660;13.226;2023-05-24T07:28:34;95255.44;;;7.83;83.35
30110;BME280;14965;50.660;13.226;2023-05-24T07:31:00;95254.25;;;7.84;84.35
30110;BME280;14965;50.660;13.226;2023-05-24T07:33:26;95257.41;;;7.82;81.78
30110;BME280;14965;50.660;13.226;2023-05-24T07:35:52;95257.59;;;7.98;83.32
30110;BME280;14965;50.660;13.226;2023-05-24T07:38:53;95258.38;;;7.99;84.29
30110;BME280;14965;50.660;13.226;2023-05-24T07:41:24;95267.75;;;8.02;82.94
30110;BME280;14965;50.660;13.226;2023-05-24T07:43:50;95261.72;;;7.83;81.10
30110;BME280;14965;50.660;13.226;2023-05-24T07:48:59;95270.22;;;7.62;82.68
30110;BME280;14965;50.660;13.226;2023-05-24T07:51:25;95270.97;;;7.62;82.62
30110;BME280;14965;50.660;13.226;2023-05-24T07:54:04;95262.69;;;7.66;82.27
30110;BME280;14965;50.660;13.226;2023-05-24T07:56:30;95264.50;;;7.80;81.29
30110;BME280;14965;50.660;13.226;2023-05-24T07:58:56;95275.25;;;8.01;80.54
30110;BME280;14965;50.660;13.226;2023-05-24T08:01:22;95256.84;;;8.25;77.55
30110;BME280;14965;50.660;13.226;2023-05-24T08:04:52;95263.75;;;8.67;79.24
30110;BME280;14965;50.660;13.226;2023-05-24T08:07:25;95271.78;;;8.82;75.10
30110;BME280;14965;50.660;13.226;2023-05-24T08:10:15;95264.63;;;8.88;76.94
30110;BME280;14965;50.660;13.226;2023-05-24T08:12:41;95269.69;;;8.89;75.99
30110;BME280;14965;50.660;13.226;2023-05-24T08:15:08;95268.69;;;8.80;75.06
30110;BME280;14965;50.660;13.226;2023-05-24T08:17:37;95270.81;;;8.68;75.28
30110;BME280;14965;50.660;13.226;2023-05-24T08:20:07;95269.63;;;8.69;75.97
30110;BME280;14965;50.660;13.226;2023-05-24T08:22:36;95267.84;;;8.56;75.41
30110;BME280;14965;50.660;13.226;2023-05-24T08:25:04;95259.03;;;8.41;74.85
30110;BME280;14965;50.660;13.226;2023-05-24T08:27:35;95267.69;;;8.36;76.32
30110;BME280;14965;50.660;13.226;2023-05-24T08:30:19;95262.50;;;8.45;77.74
30110;BME280;14965;50.660;13.226;2023-05-24T08:32:56;95268.97;;;8.62;76.69
30110;BME280;14965;50.660;13.226;2023-05-24T08:35:25;95266.56;;;8.64;76.00
30110;BME280;14965;50.660;13.226;2023-05-24T08:38:03;95268.53;;;8.63;77.32
30110;BME280;14965;50.660;13.226;2023-05-24T08:40:33;95274.03;;;8.63;76.91
30110;BME280;14965;50.660;13.226;2023-05-24T08:43:21;95273.34;;;8.56;73.90
30110;BME280;14965;50.660;13.226;2023-05-24T08:46:04;95281.66;;;8.52;73.85
30110;BME280;14965;50.660;13.226;2023-05-24T08:48:44;95275.50;;;8.71;76.06
30110;BME280;14965;50.660;13.226;2023-05-24T08:51:11;95272.00;;;9.18;72.00
30110;BME280;14965;50.660;13.226;2023-05-24T08:53:43;95271.72;;;9.56;71.18
30110;BME280;14965;50.660;13.226;2023-05-24T08:56:20;95267.63;;;9.64;69.91
30110;BME280;14965;50.660;13.226;2023-05-24T08:59:09;95273.88;;;9.68;69.13
30110;BME280;14965;50.660;13.226;2023-05-24T09:01:43;95271.22;;;9.61;71.62
30110;BME280;14965;50.660;13.226;2023-05-24T09:04:27;95280.06;;;9.52;72.23
30110;BME280;14965;50.660;13.226;2023-05-24T09:07:18;95287.63;;;9.48;71.54
30110;BME280;14965;50.660;13.226;2023-05-24T09:09:57;95280.94;;;9.26;73.34
30110;BME280;14965;50.660;13.226;2023-05-24T09:12:44;95282.91;;;9.25;74.54
30110;BME280;14965;50.660;13.226;2023-05-24T09:15:15;95281.59;;;9.33;73.68
30110;BME280;14965;50.660;13.226;2023-05-24T09:17:41;95288.53;;;9.41;74.38
30110;BME280;14965;50.660;13.226;2023-05-24T09:20:09;95286.00;;;9.51;72.99
30110;BME280;14965;50.660;13.226;2023-05-24T09:22:36;95284.41;;;9.73;72.37
30110;BME280;14965;50.660;13.226;2023-05-24T09:25:07;95286.47;;;9.89;71.06
30110;BME280;14965;50.660;13.226;2023-05-24T09:27:49;95287.13;;;9.96;71.02
30110;BME280;14965;50.660;13.226;2023-05-24T09:30:19;95279.31;;;9.71;71.84
30110;BME280;14965;50.660;13.226;2023-05-24T09:32:57;95293.06;;;9.75;72.04
30110;BME280;14965;50.660;13.226;2023-05-24T09:35:23;95301.06;;;10.09;71.80
30110;BME280;14965;50.660;13.226;2023-05-24T09:37:49;95295.25;;;10.43;69.39
30110;BME280;14965;50.660;13.226;2023-05-24T09:40:25;95292.84;;;10.45;69.86
30110;BME280;14965;50.660;13.226;2023-05-24T09:43:09;95284.19;;;10.43;72.66
30110;BME280;14965;50.660;13.226;2023-05-24T09:45:41;95290.44;;;10.08;69.50
30110;BME280;14965;50.660;13.226;2023-05-24T09:48:11;95296.31;;;9.90;70.53
30110;BME280;14965;50.660;13.226;2023-05-24T09:50:40;95285.41;;;9.83;71.91
30110;BME280;14965;50.660;13.226;2023-05-24T09:53:09;95290.31;;;9.95;70.23
30110;BME280;14965;50.660;13.226;2023-05-24T09:55:38;95296.59;;;9.95;70.09
30110;BME280;14965;50.660;13.226;2023-05-24T09:58:10;95298.50;;;9.98;69.39
30110;BME280;14965;50.660;13.226;2023-05-24T10:00:39;95306.63;;;9.86;68.41
30110;BME280;14965;50.660;13.226;2023-05-24T10:03:10;95312.47;;;9.68;67.65
30110;BME280;14965;50.660;13.226;2023-05-24T10:05:37;95304.19;;;9.68;72.83
30110;BME280;14965;50.660;13.226;2023-05-24T10:08:05;95302.94;;;9.72;70.74
30110;BME280;14965;50.660;13.226;2023-05-24T10:10:33;95307.00;;;9.88;69.77
30110;BME280;14965;50.660;13.226;2023-05-24T10:13:00;95312.22;;;10.02;70.23
30110;BME280;14965;50.660;13.226;2023-05-24T10:15:29;95312.38;;;9.95;67.65
30110;BME280;14965;50.660;13.226;2023-05-24T10:17:56;95314.19;;;9.82;66.21
30110;BME280;14965;50.660;13.226;2023-05-24T10:20:23;95302.47;;;10.17;66.77
30110;BME280;14965;50.660;13.226;2023-05-24T10:22:53;95308.84;;;10.54;67.02
30110;BME280;14965;50.660;13.226;2023-05-24T10:25:22;95312.41;;;10.71;66.75
30110;BME280;14965;50.660;13.226;2023-05-24T10:27:52;95311.97;;;10.36;62.80
30110;BME280;14965;50.660;13.226;2023-05-24T10:30:27;95318.53;;;10.22;64.00
30110;BME280;14965;50.660;13.226;2023-05-24T10:33:00;95322.44;;;10.45;66.68
30110;BME280;14965;50.660;13.226;2023-05-24T10:35:27;95317.38;;;10.60;64.28
30110;BME280;14965;50.660;13.226;2023-05-24T10:37:54;95314.94;;;10.98;65.52
30110;BME280;14965;50.660;13.226;2023-05-24T10:40:22;95315.22;;;11.04;60.63
30110;BME280;14965;50.660;13.226;2023-05-24T10:42:48;95307.03;;;11.16;62.56
30110;BME280;14965;50.660;13.226;2023-05-24T10:45:30;95307.13;;;11.13;63.86
30110;BME280;14965;50.660;13.226;2023-05-24T10:48:01;95307.53;;;11.11;65.77
30110;BME280;14965;50.660;13.226;2023-05-24T10:50:32;95307.28;;;11.06;65.52
30110;BME280;14965;50.660;13.226;2023-05-24T10:53:12;95309.28;;;11.05;64.18
30110;BME280;14965;50.660;13.226;2023-05-24T10:55:52;95302.78;;;11.12;63.42
30110;BME280;14965;50.660;13.226;2023-05-24T10:58:22;95308.22;;;11.32;63.33
30110;BME280;14965;50.660;13.226;2023-05-24T11:01:13;95305.91;;;11.30;61.52
30110;BME280;14965;50.660;13.226;2023-05-24T11:04:18;95313.75;;;11.48;61.46
30110;BME280;14965;50.660;13.226;2023-05-24T11:07:26;95321.53;;;11.37;62.08
30110;BME280;14965;50.660;13.226;2023-05-24T11:10:17;95328.25;;;10.87;62.49
30110;BME280;14965;50.660;13.226;2023-05-24T11:16:33;95317.03;;;10.94;61.17
30110;BME280;14965;50.660;13.226;2023-05-24T11:19:22;95323.50;;;10.87;63.20
30110;BME280;14965;50.660;13.226;2023-05-24T11:22:02;95324.91;;;10.95;64.57
30110;BME280;14965;50.660;13.226;2023-05-24T11:24:29;95325.34;;;11.27;63.71
30110;BME280;14965;50.660;13.226;2023-05-24T11:26:56;95336.84;;;11.41;62.08
30110;BME280;14965;50.660;13.226;2023-05-24T11:29:29;95320.84;;;11.49;61.17
30110;BME280;14965;50.660;13.226;2023-05-24T11:31:59;95315.03;;;11.60;61.69
30110;BME280;14965;50.660;13.226;2023-05-24T11:34:46;95318.38;;;12.29;61.64
30110;BME280;14965;50.660;13.226;2023-05-24T11:39:54;95312.66;;;12.75;59.58
30110;BME280;14965;50.660;13.226;2023-05-24T11:41:06;95323.41;;;12.60;56.41
30110;BME280;14965;50.660;13.226;2023-05-24T11:43:59;95314.47;;;12.27;57.90
30110;BME280;14965;50.660;13.226;2023-05-24T11:46:48;95320.59;;;12.05;57.46
30110;BME280;14965;50.660;13.226;2023-05-24T11:49:55;95327.41;;;11.39;58.78
30110;BME280;14965;50.660;13.226;2023-05-24T11:59:08;95330.16;;;11.71;58.92
30110;BME280;14965;50.660;13.226;2023-05-24T12:01:34;95323.94;;;11.84;56.40
30110;BME280;14965;50.660;13.226;2023-05-24T12:04:00;95328.72;;;11.51;57.53
30110;BME280;14965;50.660;13.226;2023-05-24T12:06:36;95332.16;;;11.22;61.25
30110;BME280;14965;50.660;13.226;2023-05-24T12:09:02;95329.41;;;10.69;58.17
30110;BME280;14965;50.660;13.226;2023-05-24T12:11:28;95326.84;;;10.79;61.22
30110;BME280;14965;50.660;13.226;2023-05-24T12:13:56;95325.75;;;10.92;63.11
30110;BME280;14965;50.660;13.226;2023-05-24T12:16:22;95321.88;;;11.22;65.24
30110;BME280;14965;50.660;13.226;2023-05-24T12:18:50;95320.50;;;11.47;58.81
30110;BME280;14965;50.660;13.226;2023-05-24T12:21:17;95322.81;;;11.48;59.05
30110;BME280;14965;50.660;13.226;2023-05-24T12:23:47;95329.25;;;11.29;59.67
30110;BME280;14965;50.660;13.226;2023-05-24T12:26:16;95338.56;;;11.19;59.23
30110;BME280;14965;50.660;13.226;2023-05-24T12:28:43;95338.84;;;10.52;60.45
30110;BME280;14965;50.660;13.226;2023-05-24T12:31:09;95334.66;;;10.04;61.26
30110;BME280;14965;50.660;13.226;2023-05-24T12:33:36;95333.44;;;9.85;62.69
30110;BME280;14965;50.660;13.226;2023-05-24T12:36:02;95327.97;;;9.82;62.85
30110;BME280;14965;50.660;13.226;2023-05-24T12:38:30;95337.34;;;9.88;63.14
30110;BME280;14965;50.660;13.226;2023-05-24T12:40:59;95332.91;;;10.14;61.27
30110;BME280;14965;50.660;13.226;2023-05-24T12:43:25;95328.75;;;10.26;61.92
30110;BME280;14965;50.660;13.226;2023-05-24T12:45:51;95339.78;;;10.26;60.70
30110;BME280;14965;50.660;13.226;2023-05-24T12:48:17;95336.38;;;10.18;60.30
30110;BME280;14965;50.660;13.226;2023-05-24T12:50:43;95336.81;;;10.16;62.01
30110;BME280;14965;50.660;13.226;2023-05-24T12:53:09;95338.16;;;10.28;61.97
30110;BME280;14965;50.660;13.226;2023-05-24T12:55:35;95337.03;;;10.26;60.99
30110;BME280;14965;50.660;13.226;2023-05-24T12:58:02;95337.44;;;10.44;61.91
30110;BME280;14965;50.660;13.226;2023-05-24T13:00:28;95336.66;;;10.63;60.63
30110;BME280;14965;50.660;13.226;2023-05-24T13:02:55;95332.81;;;10.57;60.29
30110;BME280;14965;50.660;13.226;2023-05-24T13:05:22;95331.06;;;10.47;64.05
30110;BME280;14965;50.660;13.226;2023-05-24T13:07:50;95326.69;;;10.50;65.86
30110;BME280;14965;50.660;13.226;2023-05-24T13:10:16;95327.78;;;10.72;63.93
30110;BME280;14965;50.660;13.226;2023-05-24T13:12:42;95330.59;;;11.05;65.98
30110;BME280;14965;50.660;13.226;2023-05-24T13:15:11;95326.84;;;10.95;60.87
30110;BME280;14965;50.660;13.226;2023-05-24T13:17:37;95330.50;;;10.92;58.94
30110;BME280;14965;50.660;13.226;2023-05-24T13:20:06;95319.25;;;10.83;59.38